sensor_id;sensor_type;location;lat;lon;timestamp;temperature;humidity
48728;DHT22;34527;45.618;5.130;2024-01-25T00:02:05;6.60;99.90
48728;DHT22;34527;45.618;5.130;2024-01-25T00:04:31;6.50;99.90
48728;DHT22;34527;45.618;5.130;2024-01-25T00:06:56;6.60;99.90
48728;DHT22;34527;45.618;5.130;2024-01-25T00:09:22;6.50;99.90
48728;DHT22;34527;45.618;5.130;2024-01-25T00:11:47;6.60;99.90
48728;DHT22;34527;45.618;5.130;2024-01-25T00:14:13;6.60;99.90
48728;DHT22;34527;45.618;5.130;2024-01-25T00:16:42;6.80;99.90
48728;DHT22;34527;45.618;5.130;2024-01-25T00:19:07;6.60;99.90
48728;DHT22;34527;45.618;5.130;2024-01-25T00:21:33;6.60;99.90
48728;DHT22;34527;45.618;5.130;2024-01-25T00:23:59;6.60;99.90
48728;DHT22;34527;45.618;5.130;2024-01-25T00:26:24;6.50;99.90
48728;DHT22;34527;45.618;5.130;2024-01-25T00:28:50;6.40;99.90
48728;DHT22;34527;45.618;5.130;2024-01-25T00:31:15;6.40;99.90
48728;DHT22;34527;45.618;5.130;2024-01-25T00:33:41;6.40;99.90
48728;DHT22;34527;45.618;5.130;2024-01-25T00:36:07;6.50;99.90
48728;DHT22;34527;45.618;5.130;2024-01-25T00:38:33;6.40;99.90
48728;DHT22;34527;45.618;5.130;2024-01-25T00:40:59;6.50;99.90
48728;DHT22;34527;45.618;5.130;2024-01-25T00:43:25;6.60;99.90
48728;DHT22;34527;45.618;5.130;2024-01-25T00:45:51;6.70;99.90
48728;DHT22;34527;45.618;5.130;2024-01-25T00:48:17;6.70;99.90
48728;DHT22;34527;45.618;5.130;2024-01-25T00:50:43;6.60;99.90
48728;DHT22;34527;45.618;5.130;2024-01-25T00:53:09;6.60;99.90
48728;DHT22;34527;45.618;5.130;2024-01-25T00:55:34;6.70;99.90
48728;DHT22;34527;45.618;5.130;2024-01-25T00:58:00;6.80;99.90
48728;DHT22;34527;45.618;5.130;2024-01-25T01:00:26;6.80;99.90
48728;DHT22;34527;45.618;5.130;2024-01-25T01:02:53;6.50;99.90
48728;DHT22;34527;45.618;5.130;2024-01-25T01:05:19;6.70;99.90
48728;DHT22;34527;45.618;5.130;2024-01-25T01:07:45;6.70;99.90
48728;DHT22;34527;45.618;5.130;2024-01-25T01:10:11;6.90;99.90
48728;DHT22;34527;45.618;5.130;2024-01-25T01:12:37;6.90;99.90
48728;DHT22;34527;45.618;5.130;2024-01-25T01:15:03;6.90;99.90
48728;DHT22;34527;45.618;5.130;2024-01-25T01:17:29;7.00;99.90
48728;DHT22;34527;45.618;5.130;2024-01-25T01:19:55;7.10;99.90
48728;DHT22;34527;45.618;5.130;2024-01-25T01:22:20;7.30;99.90
48728;DHT22;34527;45.618;5.130;2024-01-25T01:24:46;7.10;99.90
48728;DHT22;34527;45.618;5.130;2024-01-25T01:27:11;7.20;99.90
48728;DHT22;34527;45.618;5.130;2024-01-25T01:29:37;7.20;99.90
48728;DHT22;34527;45.618;5.130;2024-01-25T01:32:03;7.20;99.90
48728;DHT22;34527;45.618;5.130;2024-01-25T01:34:29;7.40;99.90
48728;DHT22;34527;45.618;5.130;2024-01-25T01:36:54;7.40;99.90
48728;DHT22;34527;45.618;5.130;2024-01-25T01:39:20;7.50;99.90
48728;DHT22;34527;45.618;5.130;2024-01-25T01:41:49;7.50;99.90
48728;DHT22;34527;45.618;5.130;2024-01-25T01:44:15;7.50;99.90
48728;DHT22;34527;45.618;5.130;2024-01-25T01:46:41;7.50;99.90
48728;DHT22;34527;45.618;5.130;2024-01-25T01:49:11;7.50;99.90
48728;DHT22;34527;45.618;5.130;2024-01-25T01:51:37;7.50;99.90
48728;DHT22;34527;45.618;5.130;2024-01-25T01:54:06;7.60;99.90
48728;DHT22;34527;45.618;5.130;2024-01-25T01:56:32;7.60;99.90
48728;DHT22;34527;45.618;5.130;2024-01-25T01:59:00;7.50;99.90
48728;DHT22;34527;45.618;5.130;2024-01-25T02:01:26;7.50;99.90
48728;DHT22;34527;45.618;5.130;2024-01-25T02:03:52;7.60;99.90
48728;DHT22;34527;45.618;5.130;2024-01-25T02:06:19;7.70;99.90
48728;DHT22;34527;45.618;5.130;2024-01-25T02:08:45;7.70;99.90
48728;DHT22;34527;45.618;5.130;2024-01-25T02:11:14;7.80;99.90
48728;DHT22;34527;45.618;5.130;2024-01-25T02:13:40;8.00;99.90
48728;DHT22;34527;45.618;5.130;2024-01-25T02:16:07;7.60;99.90
48728;DHT22;34527;45.618;5.130;2024-01-25T02:18:33;7.70;99.90
48728;DHT22;34527;45.618;5.130;2024-01-25T02:20:59;7.80;99.90
48728;DHT22;34527;45.618;5.130;2024-01-25T02:23:26;7.80;99.90
48728;DHT22;34527;45.618;5.130;2024-01-25T02:25:51;7.90;99.90
48728;DHT22;34527;45.618;5.130;2024-01-25T02:28:17;8.00;99.90
48728;DHT22;34527;45.618;5.130;2024-01-25T02:30:43;8.10;99.90
48728;DHT22;34527;45.618;5.130;2024-01-25T02:33:08;7.90;99.90
48728;DHT22;34527;45.618;5.130;2024-01-25T02:35:34;7.70;99.90
48728;DHT22;34527;45.618;5.130;2024-01-25T02:37:59;7.80;99.90
48728;DHT22;34527;45.618;5.130;2024-01-25T02:40:25;7.90;99.90
48728;DHT22;34527;45.618;5.130;2024-01-25T02:42:50;7.70;99.90
48728;DHT22;34527;45.618;5.130;2024-01-25T02:45:16;7.90;99.90
48728;DHT22;34527;45.618;5.130;2024-01-25T02:47:42;7.90;99.90
48728;DHT22;34527;45.618;5.130;2024-01-25T02:50:08;8.10;99.90
48728;DHT22;34527;45.618;5.130;2024-01-25T02:52:33;8.20;99.90
48728;DHT22;34527;45.618;5.130;2024-01-25T02:54:59;8.20;99.90
48728;DHT22;34527;45.618;5.130;2024-01-25T02:57:25;8.10;99.90
48728;DHT22;34527;45.618;5.130;2024-01-25T02:59:51;8.20;99.90
48728;DHT22;34527;45.618;5.130;2024-01-25T03:02:16;8.30;99.90
48728;DHT22;34527;45.618;5.130;2024-01-25T03:04:45;8.40;99.90
48728;DHT22;34527;45.618;5.130;2024-01-25T03:07:10;8.50;99.90
48728;DHT22;34527;45.618;5.130;2024-01-25T03:09:36;8.40;99.90
48728;DHT22;34527;45.618;5.130;2024-01-25T03:12:01;8.40;99.90
48728;DHT22;34527;45.618;5.130;2024-01-25T03:14:27;8.40;99.90
48728;DHT22;34527;45.618;5.130;2024-01-25T03:16:52;8.40;99.90
48728;DHT22;34527;45.618;5.130;2024-01-25T03:19:18;8.50;99.90
48728;DHT22;34527;45.618;5.130;2024-01-25T03:21:44;8.30;99.90
48728;DHT22;34527;45.618;5.130;2024-01-25T03:24:09;8.30;99.90
48728;DHT22;34527;45.618;5.130;2024-01-25T03:26:35;8.40;99.90
48728;DHT22;34527;45.618;5.130;2024-01-25T03:29:00;8.40;99.90
48728;DHT22;34527;45.618;5.130;2024-01-25T03:31:26;8.40;99.90
48728;DHT22;34527;45.618;5.130;2024-01-25T03:33:52;8.50;99.90
48728;DHT22;34527;45.618;5.130;2024-01-25T03:36:17;8.50;99.90
48728;DHT22;34527;45.618;5.130;2024-01-25T03:38:43;8.50;99.90
48728;DHT22;34527;45.618;5.130;2024-01-25T03:41:09;8.60;99.90
48728;DHT22;34527;45.618;5.130;2024-01-25T03:43:35;8.70;99.90
48728;DHT22;34527;45.618;5.130;2024-01-25T03:46:01;8.70;99.90
48728;DHT22;34527;45.618;5.130;2024-01-25T03:48:26;8.70;99.90
48728;DHT22;34527;45.618;5.130;2024-01-25T03:50:52;8.80;99.90
48728;DHT22;34527;45.618;5.130;2024-01-25T03:53:22;8.80;99.90
48728;DHT22;34527;45.618;5.130;2024-01-25T03:55:47;8.60;99.90
48728;DHT22;34527;45.618;5.130;2024-01-25T03:58:15;8.50;99.90
48728;DHT22;34527;45.618;5.130;2024-01-25T04:00:40;8.60;99.90
48728;DHT22;34527;45.618;5.130;2024-01-25T04:03:06;8.60;99.90
48728;DHT22;34527;45.618;5.130;2024-01-25T04:05:31;8.60;99.90
48728;DHT22;34527;45.618;5.130;2024-01-25T04:07:57;8.60;99.90
48728;DHT22;34527;45.618;5.130;2024-01-25T04:10:22;8.70;99.90
48728;DHT22;34527;45.618;5.130;2024-01-25T04:12:48;8.70;99.90
48728;DHT22;34527;45.618;5.130;2024-01-25T04:15:14;8.60;99.90
48728;DHT22;34527;45.618;5.130;2024-01-25T04:17:39;8.60;99.90
48728;DHT22;34527;45.618;5.130;2024-01-25T04:20:05;8.70;99.90
48728;DHT22;34527;45.618;5.130;2024-01-25T04:22:31;8.70;99.90
48728;DHT22;34527;45.618;5.130;2024-01-25T04:24:57;8.80;99.90
48728;DHT22;34527;45.618;5.130;2024-01-25T04:27:22;8.90;99.90
48728;DHT22;34527;45.618;5.130;2024-01-25T04:29:48;8.90;99.90
48728;DHT22;34527;45.618;5.130;2024-01-25T04:32:14;9.00;99.90
48728;DHT22;34527;45.618;5.130;2024-01-25T04:34:39;9.10;99.90
48728;DHT22;34527;45.618;5.130;2024-01-25T04:37:05;9.10;99.90
48728;DHT22;34527;45.618;5.130;2024-01-25T04:39:30;9.20;99.90
48728;DHT22;34527;45.618;5.130;2024-01-25T04:41:56;9.20;99.90
48728;DHT22;34527;45.618;5.130;2024-01-25T04:44:21;9.10;99.90
48728;DHT22;34527;45.618;5.130;2024-01-25T04:46:47;9.10;99.90
48728;DHT22;34527;45.618;5.130;2024-01-25T04:49:13;9.20;99.90
48728;DHT22;34527;45.618;5.130;2024-01-25T04:51:39;9.10;99.90
48728;DHT22;34527;45.618;5.130;2024-01-25T04:54:04;9.20;99.90
48728;DHT22;34527;45.618;5.130;2024-01-25T04:56:31;9.20;99.90
48728;DHT22;34527;45.618;5.130;2024-01-25T04:58:57;9.30;99.90
48728;DHT22;34527;45.618;5.130;2024-01-25T05:01:23;9.30;99.90
48728;DHT22;34527;45.618;5.130;2024-01-25T05:03:49;9.30;99.90
48728;DHT22;34527;45.618;5.130;2024-01-25T05:06:14;9.30;99.90
48728;DHT22;34527;45.618;5.130;2024-01-25T05:08:42;9.40;99.90
48728;DHT22;34527;45.618;5.130;2024-01-25T05:11:08;9.40;99.90
48728;DHT22;34527;45.618;5.130;2024-01-25T05:13:34;9.40;99.90
48728;DHT22;34527;45.618;5.130;2024-01-25T05:16:00;9.30;99.90
48728;DHT22;34527;45.618;5.130;2024-01-25T05:18:26;9.40;99.90
48728;DHT22;34527;45.618;5.130;2024-01-25T05:20:52;9.40;99.90
48728;DHT22;34527;45.618;5.130;2024-01-25T05:23:17;9.30;99.90
48728;DHT22;34527;45.618;5.130;2024-01-25T05:25:43;9.30;99.90
48728;DHT22;34527;45.618;5.130;2024-01-25T05:28:08;9.30;99.90
48728;DHT22;34527;45.618;5.130;2024-01-25T05:30:34;9.40;99.90
48728;DHT22;34527;45.618;5.130;2024-01-25T05:32:59;9.40;99.90
48728;DHT22;34527;45.618;5.130;2024-01-25T05:35:26;9.40;99.90
48728;DHT22;34527;45.618;5.130;2024-01-25T05:37:51;9.40;99.90
48728;DHT22;34527;45.618;5.130;2024-01-25T05:40:17;9.40;99.90
48728;DHT22;34527;45.618;5.130;2024-01-25T05:42:43;9.40;99.90
48728;DHT22;34527;45.618;5.130;2024-01-25T05:45:09;9.40;99.90
48728;DHT22;34527;45.618;5.130;2024-01-25T05:47:34;9.40;99.90
48728;DHT22;34527;45.618;5.130;2024-01-25T05:50:00;9.40;99.90
48728;DHT22;34527;45.618;5.130;2024-01-25T05:52:26;9.40;99.90
48728;DHT22;34527;45.618;5.130;2024-01-25T05:54:52;9.40;99.90
48728;DHT22;34527;45.618;5.130;2024-01-25T05:57:18;9.40;99.90
48728;DHT22;34527;45.618;5.130;2024-01-25T05:59:44;9.40;99.90
48728;DHT22;34527;45.618;5.130;2024-01-25T06:02:10;9.30;99.90
48728;DHT22;34527;45.618;5.130;2024-01-25T06:04:35;9.30;99.90
48728;DHT22;34527;45.618;5.130;2024-01-25T06:07:01;9.30;99.90
48728;DHT22;34527;45.618;5.130;2024-01-25T06:09:27;9.30;99.90
48728;DHT22;34527;45.618;5.130;2024-01-25T06:11:53;9.30;99.90
48728;DHT22;34527;45.618;5.130;2024-01-25T06:14:19;9.30;99.90
48728;DHT22;34527;45.618;5.130;2024-01-25T06:16:45;9.30;99.90
48728;DHT22;34527;45.618;5.130;2024-01-25T06:19:11;9.30;99.90
48728;DHT22;34527;45.618;5.130;2024-01-25T06:21:37;9.20;99.90
48728;DHT22;34527;45.618;5.130;2024-01-25T06:24:04;9.20;99.90
48728;DHT22;34527;45.618;5.130;2024-01-25T06:26:30;9.20;99.90
48728;DHT22;34527;45.618;5.130;2024-01-25T06:28:56;9.20;99.90
48728;DHT22;34527;45.618;5.130;2024-01-25T06:31:23;9.20;99.90
48728;DHT22;34527;45.618;5.130;2024-01-25T06:33:49;9.30;99.90
48728;DHT22;34527;45.618;5.130;2024-01-25T06:36:16;9.30;99.90
48728;DHT22;34527;45.618;5.130;2024-01-25T06:38:42;9.30;99.90
48728;DHT22;34527;45.618;5.130;2024-01-25T06:41:08;9.30;99.90
48728;DHT22;34527;45.618;5.130;2024-01-25T06:43:34;9.30;99.90
48728;DHT22;34527;45.618;5.130;2024-01-25T06:45:59;9.20;99.90
48728;DHT22;34527;45.618;5.130;2024-01-25T06:48:25;9.30;99.90
48728;DHT22;34527;45.618;5.130;2024-01-25T06:50:50;9.20;99.90
48728;DHT22;34527;45.618;5.130;2024-01-25T06:53:17;9.20;99.90
48728;DHT22;34527;45.618;5.130;2024-01-25T06:55:42;9.20;99.90
48728;DHT22;34527;45.618;5.130;2024-01-25T06:58:08;9.20;99.90
48728;DHT22;34527;45.618;5.130;2024-01-25T07:00:34;9.20;99.90
48728;DHT22;34527;45.618;5.130;2024-01-25T07:03:00;9.10;99.90
48728;DHT22;34527;45.618;5.130;2024-01-25T07:05:25;9.10;99.90
48728;DHT22;34527;45.618;5.130;2024-01-25T07:07:52;9.20;99.90
48728;DHT22;34527;45.618;5.130;2024-01-25T07:10:18;9.20;99.90
48728;DHT22;34527;45.618;5.130;2024-01-25T07:12:43;9.10;99.90
48728;DHT22;34527;45.618;5.130;2024-01-25T07:15:09;9.10;99.90
48728;DHT22;34527;45.618;5.130;2024-01-25T07:17:35;9.20;99.90
48728;DHT22;34527;45.618;5.130;2024-01-25T07:20:00;9.10;99.90
48728;DHT22;34527;45.618;5.130;2024-01-25T07:22:26;9.10;99.90
48728;DHT22;34527;45.618;5.130;2024-01-25T07:24:51;9.10;99.90
48728;DHT22;34527;45.618;5.130;2024-01-25T07:27:17;9.10;99.90
48728;DHT22;34527;45.618;5.130;2024-01-25T07:29:45;9.10;99.90
48728;DHT22;34527;45.618;5.130;2024-01-25T07:32:12;9.10;99.90
48728;DHT22;34527;45.618;5.130;2024-01-25T07:34:37;9.10;99.90
48728;DHT22;34527;45.618;5.130;2024-01-25T07:37:03;9.20;99.90
48728;DHT22;34527;45.618;5.130;2024-01-25T07:39:29;9.20;99.90
48728;DHT22;34527;45.618;5.130;2024-01-25T07:41:54;9.20;99.90
48728;DHT22;34527;45.618;5.130;2024-01-25T07:44:20;9.30;99.90
48728;DHT22;34527;45.618;5.130;2024-01-25T07:46:46;9.30;99.90
48728;DHT22;34527;45.618;5.130;2024-01-25T07:49:12;9.20;99.90
48728;DHT22;34527;45.618;5.130;2024-01-25T07:51:38;9.30;99.90
48728;DHT22;34527;45.618;5.130;2024-01-25T07:54:04;9.20;99.90
48728;DHT22;34527;45.618;5.130;2024-01-25T07:56:29;9.20;99.90
48728;DHT22;34527;45.618;5.130;2024-01-25T07:58:55;9.20;99.90
48728;DHT22;34527;45.618;5.130;2024-01-25T08:01:21;9.20;99.90
48728;DHT22;34527;45.618;5.130;2024-01-25T08:03:47;9.20;99.90
48728;DHT22;34527;45.618;5.130;2024-01-25T08:06:13;9.20;99.90
48728;DHT22;34527;45.618;5.130;2024-01-25T08:08:39;9.30;99.90
48728;DHT22;34527;45.618;5.130;2024-01-25T08:11:05;9.30;99.90
48728;DHT22;34527;45.618;5.130;2024-01-25T08:13:31;9.40;99.90
48728;DHT22;34527;45.618;5.130;2024-01-25T08:15:57;9.50;99.90
48728;DHT22;34527;45.618;5.130;2024-01-25T08:18:23;9.50;99.90
48728;DHT22;34527;45.618;5.130;2024-01-25T08:20:49;9.50;99.90
48728;DHT22;34527;45.618;5.130;2024-01-25T08:23:14;9.60;99.90
48728;DHT22;34527;45.618;5.130;2024-01-25T08:25:40;9.70;99.90
48728;DHT22;34527;45.618;5.130;2024-01-25T08:28:06;9.80;99.90
48728;DHT22;34527;45.618;5.130;2024-01-25T08:30:32;9.90;99.90
48728;DHT22;34527;45.618;5.130;2024-01-25T08:32:59;10.10;99.90
48728;DHT22;34527;45.618;5.130;2024-01-25T08:35:24;10.20;99.90
48728;DHT22;34527;45.618;5.130;2024-01-25T08:37:50;10.20;99.90
48728;DHT22;34527;45.618;5.130;2024-01-25T08:40:16;10.40;99.90
48728;DHT22;34527;45.618;5.130;2024-01-25T08:42:42;10.40;99.90
48728;DHT22;34527;45.618;5.130;2024-01-25T08:45:08;10.40;99.90
48728;DHT22;34527;45.618;5.130;2024-01-25T08:47:37;10.50;99.90
48728;DHT22;34527;45.618;5.130;2024-01-25T08:50:03;10.50;99.90
48728;DHT22;34527;45.618;5.130;2024-01-25T08:52:29;10.50;99.90
48728;DHT22;34527;45.618;5.130;2024-01-25T08:54:55;10.50;99.90
48728;DHT22;34527;45.618;5.130;2024-01-25T08:57:20;10.50;99.90
48728;DHT22;34527;45.618;5.130;2024-01-25T08:59:46;10.50;99.90
48728;DHT22;34527;45.618;5.130;2024-01-25T09:02:12;10.60;99.90
48728;DHT22;34527;45.618;5.130;2024-01-25T09:04:37;10.60;99.90
48728;DHT22;34527;45.618;5.130;2024-01-25T09:07:03;10.50;99.90
48728;DHT22;34527;45.618;5.130;2024-01-25T09:09:29;10.60;99.90
48728;DHT22;34527;45.618;5.130;2024-01-25T09:11:54;10.50;99.90
48728;DHT22;34527;45.618;5.130;2024-01-25T09:14:21;10.60;99.90
48728;DHT22;34527;45.618;5.130;2024-01-25T09:16:47;10.70;99.90
48728;DHT22;34527;45.618;5.130;2024-01-25T09:19:13;10.70;99.90
48728;DHT22;34527;45.618;5.130;2024-01-25T09:21:39;10.70;99.90
48728;DHT22;34527;45.618;5.130;2024-01-25T09:24:06;10.70;99.90
48728;DHT22;34527;45.618;5.130;2024-01-25T09:26:32;10.80;99.90
48728;DHT22;34527;45.618;5.130;2024-01-25T09:28:58;10.80;99.90
48728;DHT22;34527;45.618;5.130;2024-01-25T09:31:24;10.80;99.90
48728;DHT22;34527;45.618;5.130;2024-01-25T09:33:49;10.80;99.90
48728;DHT22;34527;45.618;5.130;2024-01-25T09:36:16;10.80;99.90
48728;DHT22;34527;45.618;5.130;2024-01-25T09:38:42;10.80;99.90
48728;DHT22;34527;45.618;5.130;2024-01-25T09:41:08;10.80;99.90
48728;DHT22;34527;45.618;5.130;2024-01-25T09:43:34;10.90;99.90
48728;DHT22;34527;45.618;5.130;2024-01-25T09:46:00;11.00;99.90
48728;DHT22;34527;45.618;5.130;2024-01-25T09:48:26;11.00;99.90
48728;DHT22;34527;45.618;5.130;2024-01-25T09:50:55;11.10;99.90
48728;DHT22;34527;45.618;5.130;2024-01-25T09:53:22;11.10;99.90
48728;DHT22;34527;45.618;5.130;2024-01-25T09:56:05;11.20;99.90
48728;DHT22;34527;45.618;5.130;2024-01-25T09:58:42;11.30;99.90
48728;DHT22;34527;45.618;5.130;2024-01-25T10:01:17;11.30;99.90
48728;DHT22;34527;45.618;5.130;2024-01-25T10:03:46;11.30;99.90
48728;DHT22;34527;45.618;5.130;2024-01-25T10:06:13;11.30;99.90
48728;DHT22;34527;45.618;5.130;2024-01-25T10:08:38;11.40;99.90
48728;DHT22;34527;45.618;5.130;2024-01-25T10:11:05;11.40;99.90
48728;DHT22;34527;45.618;5.130;2024-01-25T10:13:30;11.50;99.90
48728;DHT22;34527;45.618;5.130;2024-01-25T10:15:57;11.50;99.90
48728;DHT22;34527;45.618;5.130;2024-01-25T10:18:25;11.60;99.90
48728;DHT22;34527;45.618;5.130;2024-01-25T10:20:53;11.60;99.90
48728;DHT22;34527;45.618;5.130;2024-01-25T10:23:18;11.60;99.90
48728;DHT22;34527;45.618;5.130;2024-01-25T10:25:44;11.60;99.90
48728;DHT22;34527;45.618;5.130;2024-01-25T10:28:10;11.70;99.90
48728;DHT22;34527;45.618;5.130;2024-01-25T10:30:38;11.70;99.90
48728;DHT22;34527;45.618;5.130;2024-01-25T10:33:04;11.80;99.90
48728;DHT22;34527;45.618;5.130;2024-01-25T10:35:31;11.80;99.90
48728;DHT22;34527;45.618;5.130;2024-01-25T10:37:57;11.90;99.90
48728;DHT22;34527;45.618;5.130;2024-01-25T10:40:23;12.00;99.90
48728;DHT22;34527;45.618;5.130;2024-01-25T10:42:49;12.00;99.90
48728;DHT22;34527;45.618;5.130;2024-01-25T10:45:15;12.00;99.90
48728;DHT22;34527;45.618;5.130;2024-01-25T10:47:41;12.00;99.90
48728;DHT22;34527;45.618;5.130;2024-01-25T10:50:12;12.00;99.90
48728;DHT22;34527;45.618;5.130;2024-01-25T10:52:40;12.00;99.90
48728;DHT22;34527;45.618;5.130;2024-01-25T10:55:07;12.00;99.90
48728;DHT22;34527;45.618;5.130;2024-01-25T10:57:36;12.10;99.90
48728;DHT22;34527;45.618;5.130;2024-01-25T11:00:23;12.20;99.90
48728;DHT22;34527;45.618;5.130;2024-01-25T11:02:51;12.20;99.90
48728;DHT22;34527;45.618;5.130;2024-01-25T11:05:17;12.20;99.90
48728;DHT22;34527;45.618;5.130;2024-01-25T11:07:48;12.20;99.90
48728;DHT22;34527;45.618;5.130;2024-01-25T11:10:19;12.20;99.90
48728;DHT22;34527;45.618;5.130;2024-01-25T11:13:01;12.30;99.90
48728;DHT22;34527;45.618;5.130;2024-01-25T11:15:35;12.30;99.90
48728;DHT22;34527;45.618;5.130;2024-01-25T11:18:02;12.30;99.90
48728;DHT22;34527;45.618;5.130;2024-01-25T11:20:29;12.40;99.90
48728;DHT22;34527;45.618;5.130;2024-01-25T11:22:59;12.40;99.90
48728;DHT22;34527;45.618;5.130;2024-01-25T11:25:32;12.50;99.90
48728;DHT22;34527;45.618;5.130;2024-01-25T11:28:00;12.60;99.90
48728;DHT22;34527;45.618;5.130;2024-01-25T11:30:27;12.50;99.90
48728;DHT22;34527;45.618;5.130;2024-01-25T11:32:53;12.50;99.90
48728;DHT22;34527;45.618;5.130;2024-01-25T11:35:19;12.50;99.90
48728;DHT22;34527;45.618;5.130;2024-01-25T11:37:46;12.60;99.90
48728;DHT22;34527;45.618;5.130;2024-01-25T11:40:13;12.50;99.90
48728;DHT22;34527;45.618;5.130;2024-01-25T11:42:40;12.50;99.90
48728;DHT22;34527;45.618;5.130;2024-01-25T11:45:09;12.50;99.90
48728;DHT22;34527;45.618;5.130;2024-01-25T11:47:35;12.40;99.90
48728;DHT22;34527;45.618;5.130;2024-01-25T11:50:02;12.50;99.90
48728;DHT22;34527;45.618;5.130;2024-01-25T11:52:28;12.60;99.90
48728;DHT22;34527;45.618;5.130;2024-01-25T11:54:54;12.60;99.90
48728;DHT22;34527;45.618;5.130;2024-01-25T11:57:20;12.70;99.90
48728;DHT22;34527;45.618;5.130;2024-01-25T11:59:46;12.60;99.90
48728;DHT22;34527;45.618;5.130;2024-01-25T12:02:13;12.60;99.90
48728;DHT22;34527;45.618;5.130;2024-01-25T12:04:39;12.70;99.90
48728;DHT22;34527;45.618;5.130;2024-01-25T12:07:05;12.60;99.90
48728;DHT22;34527;45.618;5.130;2024-01-25T12:09:32;12.60;99.90
48728;DHT22;34527;45.618;5.130;2024-01-25T12:11:57;12.60;99.90
48728;DHT22;34527;45.618;5.130;2024-01-25T12:14:25;12.70;99.90
48728;DHT22;34527;45.618;5.130;2024-01-25T12:16:51;12.80;99.90
48728;DHT22;34527;45.618;5.130;2024-01-25T12:19:16;12.80;99.90
48728;DHT22;34527;45.618;5.130;2024-01-25T12:21:44;12.80;99.90
48728;DHT22;34527;45.618;5.130;2024-01-25T12:24:10;12.90;99.90
48728;DHT22;34527;45.618;5.130;2024-01-25T12:26:36;12.90;99.90
48728;DHT22;34527;45.618;5.130;2024-01-25T12:29:02;12.90;99.90
48728;DHT22;34527;45.618;5.130;2024-01-25T12:31:28;12.90;99.90
48728;DHT22;34527;45.618;5.130;2024-01-25T12:33:54;12.90;99.90
48728;DHT22;34527;45.618;5.130;2024-01-25T12:36:19;12.90;99.90
48728;DHT22;34527;45.618;5.130;2024-01-25T12:38:45;13.00;99.90
48728;DHT22;34527;45.618;5.130;2024-01-25T12:41:11;13.00;99.90
48728;DHT22;34527;45.618;5.130;2024-01-25T12:43:36;13.10;99.90
48728;DHT22;34527;45.618;5.130;2024-01-25T12:46:02;13.10;99.90
48728;DHT22;34527;45.618;5.130;2024-01-25T12:48:27;13.20;99.90
48728;DHT22;34527;45.618;5.130;2024-01-25T12:50:53;13.30;99.90
48728;DHT22;34527;45.618;5.130;2024-01-25T12:53:19;13.30;99.90
48728;DHT22;34527;45.618;5.130;2024-01-25T12:55:45;13.40;99.90
48728;DHT22;34527;45.618;5.130;2024-01-25T12:58:10;13.50;99.90
48728;DHT22;34527;45.618;5.130;2024-01-25T13:00:36;13.50;99.90
48728;DHT22;34527;45.618;5.130;2024-01-25T13:03:01;13.60;99.90
48728;DHT22;34527;45.618;5.130;2024-01-25T13:05:28;13.60;99.90
48728;DHT22;34527;45.618;5.130;2024-01-25T13:07:55;13.70;99.90
48728;DHT22;34527;45.618;5.130;2024-01-25T13:10:20;13.80;99.90
48728;DHT22;34527;45.618;5.130;2024-01-25T13:12:46;13.80;99.90
48728;DHT22;34527;45.618;5.130;2024-01-25T13:15:11;13.90;99.90
48728;DHT22;34527;45.618;5.130;2024-01-25T13:17:37;13.90;99.90
48728;DHT22;34527;45.618;5.130;2024-01-25T13:20:03;13.80;99.90
48728;DHT22;34527;45.618;5.130;2024-01-25T13:22:32;13.90;99.90
48728;DHT22;34527;45.618;5.130;2024-01-25T13:25:01;13.80;99.90
48728;DHT22;34527;45.618;5.130;2024-01-25T13:27:28;13.90;99.90
48728;DHT22;34527;45.618;5.130;2024-01-25T13:29:54;13.80;99.90
48728;DHT22;34527;45.618;5.130;2024-01-25T13:32:20;13.80;99.90
48728;DHT22;34527;45.618;5.130;2024-01-25T13:34:46;13.70;99.90
48728;DHT22;34527;45.618;5.130;2024-01-25T13:37:11;13.50;99.90
48728;DHT22;34527;45.618;5.130;2024-01-25T13:39:37;13.50;99.90
48728;DHT22;34527;45.618;5.130;2024-01-25T13:42:03;13.40;99.90
48728;DHT22;34527;45.618;5.130;2024-01-25T13:44:28;13.30;99.90
48728;DHT22;34527;45.618;5.130;2024-01-25T13:46:54;13.20;99.90
48728;DHT22;34527;45.618;5.130;2024-01-25T13:49:22;13.20;99.90
48728;DHT22;34527;45.618;5.130;2024-01-25T13:51:47;13.10;99.90
48728;DHT22;34527;45.618;5.130;2024-01-25T13:54:13;13.10;99.90
48728;DHT22;34527;45.618;5.130;2024-01-25T13:56:38;13.10;99.90
48728;DHT22;34527;45.618;5.130;2024-01-25T13:59:05;13.20;99.90
48728;DHT22;34527;45.618;5.130;2024-01-25T14:01:31;13.30;99.90
48728;DHT22;34527;45.618;5.130;2024-01-25T14:03:57;13.30;99.90
48728;DHT22;34527;45.618;5.130;2024-01-25T14:06:22;13.40;99.90
48728;DHT22;34527;45.618;5.130;2024-01-25T14:08:48;13.40;99.90
48728;DHT22;34527;45.618;5.130;2024-01-25T14:11:15;13.50;99.90
48728;DHT22;34527;45.618;5.130;2024-01-25T14:13:41;13.60;99.90
48728;DHT22;34527;45.618;5.130;2024-01-25T14:16:07;13.70;99.90
48728;DHT22;34527;45.618;5.130;2024-01-25T14:18:39;13.70;99.90
48728;DHT22;34527;45.618;5.130;2024-01-25T14:21:05;13.60;99.90
48728;DHT22;34527;45.618;5.130;2024-01-25T14:23:31;13.50;99.90
48728;DHT22;34527;45.618;5.130;2024-01-25T14:25:57;13.50;99.90
48728;DHT22;34527;45.618;5.130;2024-01-25T14:28:22;13.40;99.90
48728;DHT22;34527;45.618;5.130;2024-01-25T14:30:48;13.50;99.90
48728;DHT22;34527;45.618;5.130;2024-01-25T14:33:14;13.50;99.90
48728;DHT22;34527;45.618;5.130;2024-01-25T14:35:39;13.50;99.90
48728;DHT22;34527;45.618;5.130;2024-01-25T14:38:05;13.50;99.90
48728;DHT22;34527;45.618;5.130;2024-01-25T14:40:31;13.50;99.90
48728;DHT22;34527;45.618;5.130;2024-01-25T14:42:56;13.60;99.90
48728;DHT22;34527;45.618;5.130;2024-01-25T14:45:22;13.60;99.90
48728;DHT22;34527;45.618;5.130;2024-01-25T14:47:48;13.60;99.90
48728;DHT22;34527;45.618;5.130;2024-01-25T14:50:13;13.60;99.90
48728;DHT22;34527;45.618;5.130;2024-01-25T14:52:39;13.60;99.90
48728;DHT22;34527;45.618;5.130;2024-01-25T14:55:05;13.50;99.90
48728;DHT22;34527;45.618;5.130;2024-01-25T14:57:31;13.50;99.90
48728;DHT22;34527;45.618;5.130;2024-01-25T14:59:56;13.50;99.90
48728;DHT22;34527;45.618;5.130;2024-01-25T15:02:22;13.50;99.90
48728;DHT22;34527;45.618;5.130;2024-01-25T15:04:48;13.50;99.90
48728;DHT22;34527;45.618;5.130;2024-01-25T15:07:13;13.50;99.90
48728;DHT22;34527;45.618;5.130;2024-01-25T15:09:40;13.40;99.90
48728;DHT22;34527;45.618;5.130;2024-01-25T15:12:07;13.40;99.90
48728;DHT22;34527;45.618;5.130;2024-01-25T15:14:33;13.40;99.90
48728;DHT22;34527;45.618;5.130;2024-01-25T15:16:59;13.40;99.90
48728;DHT22;34527;45.618;5.130;2024-01-25T15:19:24;13.30;99.90
48728;DHT22;34527;45.618;5.130;2024-01-25T15:21:50;13.30;99.90
48728;DHT22;34527;45.618;5.130;2024-01-25T15:24:16;13.30;99.90
48728;DHT22;34527;45.618;5.130;2024-01-25T15:26:42;13.30;99.90
48728;DHT22;34527;45.618;5.130;2024-01-25T15:29:08;13.20;99.90
48728;DHT22;34527;45.618;5.130;2024-01-25T15:31:34;13.10;99.90
48728;DHT22;34527;45.618;5.130;2024-01-25T15:34:00;12.90;99.90